Time;durP1;ratioP1;P1;durP2;ratioP2;P2;SDS_P1;SDS_P2;PMS_P1;PMS_P2;Temp;Humidity;BMP_temperature;BMP_pressure;BME280_temperature;BME280_humidity;BME280_pressure;Samples;Min_cycle;Max_cycle;Signal;HPM_P1;HPM_P2
2021/08/11 00:01:47;;;;;;;7.40;2.83;;;;;;;;;;5113870;28;20924;-71
2021/08/11 00:04:14;;;;;;;5.17;3.40;;;;;;;;;;5113261;28;20941;-71
2021/08/11 00:06:41;;;;;;;4.00;3.53;;;;;;;;;;5113555;28;20440;-72
2021/08/11 00:09:08;;;;;;;7.50;3.70;;;;;;;;;;5113642;28;20439;-71
2021/08/11 00:11:36;;;;;;;5.20;3.67;;;;;;;;;;5113787;28;20440;-71
2021/08/11 00:14:04;;;;;;;3.67;3.17;;;;;;;;;;5113877;28;20907;-70
2021/08/11 00:16:31;;;;;;;5.50;3.60;;;;;;;;;;5112254;28;20995;-70
2021/08/11 00:18:58;;;;;;;5.07;3.83;;;;;;;;;;5113681;28;20435;-71
2021/08/11 00:21:25;;;;;;;5.83;3.80;;;;;;;;;;5112890;28;20467;-71
2021/08/11 00:23:53;;;;;;;5.60;3.40;;;;;;;;;;5113650;28;20550;-71
2021/08/11 00:26:20;;;;;;;4.77;3.80;;;;;;;;;;5112845;28;20473;-70
2021/08/11 00:28:48;;;;;;;3.80;2.90;;;;;;;;;;5113591;28;20438;-71
2021/08/11 00:31:15;;;;;;;5.80;4.00;;;;;;;;;;5112870;28;20443;-70
2021/08/11 00:33:43;;;;;;;3.57;3.00;;;;;;;;;;5113611;28;20446;-70
2021/08/11 00:36:10;;;;;;;5.67;3.90;;;;;;;;;;5112443;28;20527;-71
2021/08/11 00:38:37;;;;;;;4.47;3.77;;;;;;;;;;5112588;28;20864;-71
2021/08/11 00:41:04;;;;;;;6.47;3.47;;;;;;;;;;5113490;28;20446;-71
2021/08/11 00:43:31;;;;;;;3.87;3.53;;;;;;;;;;5112644;28;20446;-72
2021/08/11 00:46:00;;;;;;;3.63;3.33;;;;;;;;;;5113271;28;20558;-71
2021/08/11 00:48:27;;;;;;;4.00;3.60;;;;;;;;;;5112371;28;20431;-71
2021/08/11 00:50:55;;;;;;;6.67;3.63;;;;;;;;;;5112876;28;20448;-72
2021/08/11 00:53:25;;;;;;;7.57;3.47;;;;;;;;;;5112495;28;20454;-72
2021/08/11 00:55:53;;;;;;;4.40;2.97;;;;;;;;;;5112856;28;20440;-72
2021/08/11 00:58:21;;;;;;;4.40;3.40;;;;;;;;;;5112426;28;20468;-71
2021/08/11 01:00:50;;;;;;;4.60;3.63;;;;;;;;;;5112899;28;20428;-72
2021/08/11 01:03:21;;;;;;;4.77;3.80;;;;;;;;;;5112211;28;20435;-71
2021/08/11 01:05:48;;;;;;;5.47;3.53;;;;;;;;;;5112684;28;20452;-71
2021/08/11 01:08:16;;;;;;;5.33;4.20;;;;;;;;;;5112292;28;20439;-72
2021/08/11 01:10:43;;;;;;;4.73;3.87;;;;;;;;;;5113029;28;20785;-71
2021/08/11 01:13:13;;;;;;;5.70;3.50;;;;;;;;;;5112681;28;20442;-71
2021/08/11 01:15:45;;;;;;;5.27;3.17;;;;;;;;;;5112648;28;20815;-71
2021/08/11 01:18:12;;;;;;;6.70;3.03;;;;;;;;;;5111663;28;20907;-71
2021/08/11 01:20:45;;;;;;;5.30;3.50;;;;;;;;;;5112339;28;20491;-71
2021/08/11 01:23:14;;;;;;;5.50;3.77;;;;;;;;;;5111372;28;20435;-71
2021/08/11 01:25:43;;;;;;;7.03;3.53;;;;;;;;;;5111932;28;20464;-71
2021/08/11 01:28:26;;;;;;;4.40;3.50;;;;;;;;;;5112639;28;20440;-71
2021/08/11 01:30:58;;;;;;;5.03;3.47;;;;;;;;;;5111702;28;20428;-71
2021/08/11 01:33:32;;;;;;;4.30;3.50;;;;;;;;;;5111929;28;20501;-71
2021/08/11 01:36:01;;;;;;;5.37;4.03;;;;;;;;;;5112355;28;20514;-71
2021/08/11 01:38:31;;;;;;;3.90;3.50;;;;;;;;;;5111706;28;20442;-71
2021/08/11 01:41:01;;;;;;;4.73;3.60;;;;;;;;;;5112281;28;20488;-72
2021/08/11 01:43:32;;;;;;;4.33;3.93;;;;;;;;;;5111468;28;20460;-71
2021/08/11 01:46:00;;;;;;;4.57;3.60;;;;;;;;;;5111866;28;20490;-71
2021/08/11 01:48:30;;;;;;;6.30;2.97;;;;;;;;;;5110862;28;20933;-71
2021/08/11 01:50:58;;;;;;;4.90;3.20;;;;;;;;;;5111869;28;20530;-72
2021/08/11 01:53:26;;;;;;;6.17;3.37;;;;;;;;;;5111036;28;20935;-71
2021/08/11 01:55:55;;;;;;;3.73;3.20;;;;;;;;;;5111895;28;20782;-71
2021/08/11 01:58:23;;;;;;;7.07;3.50;;;;;;;;;;5111420;28;20446;-71
2021/08/11 02:00:51;;;;;;;4.60;3.33;;;;;;;;;;5111553;28;20969;-71
2021/08/11 02:03:20;;;;;;;4.87;3.20;;;;;;;;;;5111354;28;20440;-71
2021/08/11 02:05:49;;;;;;;4.40;2.83;;;;;;;;;;5111314;28;20516;-71
2021/08/11 02:08:17;;;;;;;3.07;2.80;;;;;;;;;;5111415;28;20442;-71
2021/08/11 02:10:45;;;;;;;6.17;3.70;;;;;;;;;;5111382;28;20519;-71
2021/08/11 02:13:12;;;;;;;3.77;3.07;;;;;;;;;;5112013;28;20431;-71
2021/08/11 02:15:40;;;;;;;8.10;3.40;;;;;;;;;;5110653;28;20436;-71
2021/08/11 02:18:07;;;;;;;4.70;3.20;;;;;;;;;;5111579;28;20521;-71
2021/08/11 02:20:34;;;;;;;6.67;3.50;;;;;;;;;;5110488;28;20511;-71
2021/08/11 02:23:02;;;;;;;6.80;3.33;;;;;;;;;;5111809;28;20432;-71
2021/08/11 02:25:30;;;;;;;4.60;3.60;;;;;;;;;;5111249;28;20482;-71
2021/08/11 02:28:02;;;;;;;4.97;3.03;;;;;;;;;;5111611;28;20499;-71
2021/08/11 02:30:31;;;;;;;5.70;4.03;;;;;;;;;;5110841;28;20507;-71
2021/08/11 02:33:01;;;;;;;5.30;3.97;;;;;;;;;;5111045;28;20443;-71
2021/08/11 02:35:30;;;;;;;3.63;3.30;;;;;;;;;;5110841;28;20526;-71
2021/08/11 02:37:59;;;;;;;7.47;4.00;;;;;;;;;;5111699;28;20428;-71
2021/08/11 02:40:31;;;;;;;4.23;3.80;;;;;;;;;;5110514;28;20446;-70
2021/08/11 02:43:03;;;;;;;3.73;3.33;;;;;;;;;;5111397;28;20868;-71
2021/08/11 02:45:31;;;;;;;4.40;3.90;;;;;;;;;;5110703;28;20558;-71
2021/08/11 02:48:00;;;;;;;6.93;3.93;;;;;;;;;;5113710;28;20423;-71
2021/08/11 02:50:27;;;;;;;5.03;3.20;;;;;;;;;;5110189;28;20998;-71
2021/08/11 02:52:55;;;;;;;8.83;3.57;;;;;;;;;;5111309;28;20445;-71
2021/08/11 02:55:23;;;;;;;8.63;3.90;;;;;;;;;;5110144;28;20454;-71
2021/08/11 02:57:52;;;;;;;4.33;3.40;;;;;;;;;;5111615;28;20789;-71
2021/08/11 03:00:20;;;;;;;7.90;4.40;;;;;;;;;;5111617;28;20514;-71
2021/08/11 03:02:48;;;;;;;4.40;3.70;;;;;;;;;;5115187;28;20939;-71
2021/08/11 03:05:15;;;;;;;4.70;3.47;;;;;;;;;;5115131;28;20538;-71
2021/08/11 03:07:43;;;;;;;4.80;3.73;;;;;;;;;;5114626;28;20866;-71
2021/08/11 03:10:11;;;;;;;3.77;3.40;;;;;;;;;;5114188;28;20443;-71
2021/08/11 03:12:39;;;;;;;5.40;3.80;;;;;;;;;;5114544;28;20450;-71
2021/08/11 03:15:09;;;;;;;4.13;3.60;;;;;;;;;;5115159;28;20530;-71
2021/08/11 03:17:36;;;;;;;5.80;3.93;;;;;;;;;;5114761;28;20420;-71
2021/08/11 03:20:04;;;;;;;5.10;4.57;;;;;;;;;;5114314;28;20470;-71
2021/08/11 03:22:32;;;;;;;6.27;3.47;;;;;;;;;;5113956;28;20967;-71
2021/08/11 03:24:59;;;;;;;5.70;3.53;;;;;;;;;;5114807;28;20514;-71
2021/08/11 03:27:26;;;;;;;9.80;4.20;;;;;;;;;;5114112;28;20812;-71
2021/08/11 03:29:54;;;;;;;6.97;4.20;;;;;;;;;;5114474;28;20492;-71
2021/08/11 03:32:23;;;;;;;4.60;3.80;;;;;;;;;;5114060;28;20439;-71
2021/08/11 03:34:50;;;;;;;4.93;3.67;;;;;;;;;;5114195;28;20469;-71
2021/08/11 03:37:17;;;;;;;6.70;3.93;;;;;;;;;;5114641;28;20439;-71
2021/08/11 03:39:44;;;;;;;7.10;4.63;;;;;;;;;;5113092;28;20446;-71
2021/08/11 03:42:11;;;;;;;7.70;3.87;;;;;;;;;;5114122;28;20469;-71
2021/08/11 03:44:38;;;;;;;4.13;3.73;;;;;;;;;;5114052;28;20515;-71
2021/08/11 03:47:06;;;;;;;5.67;4.23;;;;;;;;;;5114602;28;20474;-72
2021/08/11 03:49:34;;;;;;;4.10;3.70;;;;;;;;;;5096443;28;20451;-71
2021/08/11 03:52:02;;;;;;;6.03;4.07;;;;;;;;;;5113883;28;20468;-72
2021/08/11 03:54:29;;;;;;;5.67;4.03;;;;;;;;;;5113629;28;20432;-71
2021/08/11 03:56:56;;;;;;;7.93;4.30;;;;;;;;;;5114503;28;20534;-71
2021/08/11 03:59:23;;;;;;;9.87;3.77;;;;;;;;;;5113201;28;20452;-71
2021/08/11 04:01:53;;;;;;;3.80;3.40;;;;;;;;;;5113960;28;20539;-71
2021/08/11 04:04:21;;;;;;;5.93;3.90;;;;;;;;;;5113827;28;20936;-72
2021/08/11 04:06:49;;;;;;;5.07;4.30;;;;;;;;;;5113644;28;20472;-71
2021/08/11 04:09:16;;;;;;;6.73;4.53;;;;;;;;;;5113680;28;20493;-71
2021/08/11 04:11:45;;;;;;;4.17;3.30;;;;;;;;;;5109735;28;20817;-71
2021/08/11 04:14:12;;;;;;;6.93;3.83;;;;;;;;;;5113717;28;20455;-71
2021/08/11 04:16:39;;;;;;;3.83;3.43;;;;;;;;;;5112959;28;21015;-71
2021/08/11 04:19:06;;;;;;;4.40;3.30;;;;;;;;;;5113453;28;20480;-71
2021/08/11 04:21:34;;;;;;;5.07;4.20;;;;;;;;;;5112692;28;20468;-71
2021/08/11 04:24:02;;;;;;;6.20;4.40;;;;;;;;;;5113687;28;20450;-72
2021/08/11 04:26:29;;;;;;;4.87;4.17;;;;;;;;;;5112689;28;20471;-71
2021/08/11 04:28:56;;;;;;;5.03;3.93;;;;;;;;;;5113833;28;20447;-71
2021/08/11 04:31:23;;;;;;;9.23;4.37;;;;;;;;;;5113163;28;20432;-72
2021/08/11 04:33:51;;;;;;;5.07;3.83;;;;;;;;;;5113604;28;20438;-71
2021/08/11 04:36:18;;;;;;;5.10;4.10;;;;;;;;;;5113411;28;20455;-71
2021/08/11 04:38:45;;;;;;;5.17;4.20;;;;;;;;;;5113084;28;20868;-70
2021/08/11 04:41:15;;;;;;;5.00;3.93;;;;;;;;;;5112389;28;20454;-70
2021/08/11 04:43:42;;;;;;;4.53;3.80;;;;;;;;;;5112424;28;20463;-70
2021/08/11 04:46:09;;;;;;;5.90;4.13;;;;;;;;;;5113088;28;20481;-71
2021/08/11 04:48:37;;;;;;;7.63;4.40;;;;;;;;;;5112122;28;21010;-71
2021/08/11 04:51:05;;;;;;;6.60;4.10;;;;;;;;;;5113038;28;20546;-71
2021/08/11 04:53:32;;;;;;;3.80;3.50;;;;;;;;;;5112488;28;20488;-70
2021/08/11 04:55:59;;;;;;;7.80;4.47;;;;;;;;;;5112290;28;20519;-70
2021/08/11 04:58:28;;;;;;;6.93;4.80;;;;;;;;;;5112571;28;20436;-71
2021/08/11 05:00:55;;;;;;;6.13;4.47;;;;;;;;;;5112636;28;20446;-70
2021/08/11 05:03:22;;;;;;;5.00;4.27;;;;;;;;;;5112589;28;20551;-71
2021/08/11 05:05:49;;;;;;;4.60;4.10;;;;;;;;;;5112127;28;20440;-70
2021/08/11 05:08:16;;;;;;;5.50;4.30;;;;;;;;;;5112668;28;20534;-71
2021/08/11 05:10:43;;;;;;;5.80;3.90;;;;;;;;;;5111457;28;20961;-71
2021/08/11 05:13:12;;;;;;;10.37;4.90;;;;;;;;;;5112382;28;20449;-70
2021/08/11 05:15:41;;;;;;;5.60;4.40;;;;;;;;;;5112382;28;20451;-71
2021/08/11 05:18:08;;;;;;;4.73;3.93;;;;;;;;;;5112734;28;20530;-71
2021/08/11 05:20:35;;;;;;;4.97;4.17;;;;;;;;;;5111454;28;20482;-71
2021/08/11 05:23:02;;;;;;;8.23;4.97;;;;;;;;;;5111833;28;20470;-71
2021/08/11 05:25:30;;;;;;;6.17;5.20;;;;;;;;;;5111582;28;20470;-71
2021/08/11 05:27:58;;;;;;;5.60;4.20;;;;;;;;;;5112245;28;20477;-71
2021/08/11 05:30:25;;;;;;;5.80;4.90;;;;;;;;;;5112042;28;20451;-71
2021/08/11 05:32:53;;;;;;;7.80;4.83;;;;;;;;;;5112261;28;20443;-71
2021/08/11 05:35:20;;;;;;;6.57;4.60;;;;;;;;;;5112485;28;20444;-71
2021/08/11 05:37:48;;;;;;;5.37;4.60;;;;;;;;;;5111657;28;20794;-70
2021/08/11 05:40:16;;;;;;;6.57;4.60;;;;;;;;;;5111578;28;20452;-71
2021/08/11 05:42:44;;;;;;;10.37;5.10;;;;;;;;;;5111212;28;20440;-71
2021/08/11 05:45:11;;;;;;;5.00;4.50;;;;;;;;;;5112499;28;20448;-71
2021/08/11 05:47:38;;;;;;;8.33;5.00;;;;;;;;;;5111664;28;21010;-71
2021/08/11 05:50:08;;;;;;;8.27;5.67;;;;;;;;;;5111785;28;20451;-70
2021/08/11 05:52:35;;;;;;;5.70;4.27;;;;;;;;;;5113121;28;20530;-71
2021/08/11 05:55:02;;;;;;;6.30;5.17;;;;;;;;;;5114390;28;20515;-71
2021/08/11 05:57:30;;;;;;;5.47;4.40;;;;;;;;;;5113080;28;20539;-71
2021/08/11 05:59:57;;;;;;;5.40;4.20;;;;;;;;;;5111499;28;20515;-71
2021/08/11 06:02:26;;;;;;;5.17;4.67;;;;;;;;;;5111853;28;20812;-71
2021/08/11 06:04:54;;;;;;;6.87;4.10;;;;;;;;;;5111880;28;20809;-72
2021/08/11 06:07:22;;;;;;;11.33;4.70;;;;;;;;;;5111542;28;20998;-72
2021/08/11 06:09:49;;;;;;;6.20;4.33;;;;;;;;;;5110643;28;20947;-71
2021/08/11 06:12:16;;;;;;;6.50;5.00;;;;;;;;;;5111075;28;20527;-71
2021/08/11 06:14:43;;;;;;;5.13;4.50;;;;;;;;;;5111273;28;20527;-71
2021/08/11 06:17:11;;;;;;;6.10;3.90;;;;;;;;;;5111880;28;20799;-71
2021/08/11 06:19:38;;;;;;;4.97;3.40;;;;;;;;;;5110457;28;20451;-71
2021/08/11 06:22:05;;;;;;;7.47;4.03;;;;;;;;;;5111601;28;20960;-72
2021/08/11 06:24:34;;;;;;;7.60;4.00;;;;;;;;;;5110324;28;20853;-71
2021/08/11 06:27:01;;;;;;;4.80;4.17;;;;;;;;;;5111585;28;20493;-70
2021/08/11 06:29:28;;;;;;;4.93;4.10;;;;;;;;;;5111401;28;20950;-71
2021/08/11 06:31:55;;;;;;;6.20;4.70;;;;;;;;;;5107657;28;20501;-70
2021/08/11 06:34:24;;;;;;;5.73;3.90;;;;;;;;;;5100257;28;20519;-71
2021/08/11 06:36:51;;;;;;;6.33;3.80;;;;;;;;;;5104649;28;20443;-71
2021/08/11 06:39:18;;;;;;;4.90;4.40;;;;;;;;;;5109055;28;20523;-72
2021/08/11 06:41:46;;;;;;;7.47;4.70;;;;;;;;;;5109405;28;20442;-75
2021/08/11 06:44:14;;;;;;;5.67;4.00;;;;;;;;;;5100115;28;20474;-74
2021/08/11 06:46:41;;;;;;;7.10;5.17;;;;;;;;;;5113872;28;20467;-75
2021/08/11 06:49:08;;;;;;;6.60;4.07;;;;;;;;;;5108245;28;20804;-74
2021/08/11 06:51:35;;;;;;;5.80;4.17;;;;;;;;;;5099459;28;20879;-74
2021/08/11 06:54:02;;;;;;;5.27;4.03;;;;;;;;;;5111914;28;20983;-74
2021/08/11 06:56:29;;;;;;;4.20;3.73;;;;;;;;;;5107751;28;20905;-74
2021/08/11 06:58:58;;;;;;;6.07;3.60;;;;;;;;;;5101359;28;20935;-75
2021/08/11 07:01:25;;;;;;;8.00;4.77;;;;;;;;;;5112233;28;20535;-75
2021/08/11 07:03:52;;;;;;;5.17;4.20;;;;;;;;;;5103239;28;20566;-75
2021/08/11 07:06:19;;;;;;;4.80;3.93;;;;;;;;;;5107267;28;20432;-75
2021/08/11 07:08:46;;;;;;;8.40;4.37;;;;;;;;;;5100982;28;20480;-75
2021/08/11 07:11:14;;;;;;;6.83;5.30;;;;;;;;;;5112203;28;20446;-74
2021/08/11 07:13:41;;;;;;;11.73;5.23;;;;;;;;;;5113222;28;20450;-75
2021/08/11 07:16:10;;;;;;;8.50;4.83;;;;;;;;;;5114985;28;20502;-74
2021/08/11 07:18:37;;;;;;;7.10;3.80;;;;;;;;;;5114650;28;20530;-74
2021/08/11 07:21:04;;;;;;;4.73;3.47;;;;;;;;;;5110993;28;20566;-75
2021/08/11 07:23:31;;;;;;;4.97;4.20;;;;;;;;;;5109521;28;20474;-75
2021/08/11 07:25:58;;;;;;;6.80;3.70;;;;;;;;;;5105855;28;20917;-75
2021/08/11 07:28:26;;;;;;;7.03;4.00;;;;;;;;;;5107947;28;20536;-75
2021/08/11 07:30:53;;;;;;;5.17;3.80;;;;;;;;;;5098969;28;20834;-75
2021/08/11 07:33:23;;;;;;;4.30;3.90;;;;;;;;;;5100342;28;20444;-73
2021/08/11 07:35:50;;;;;;;6.27;3.87;;;;;;;;;;5108648;28;20461;-71
2021/08/11 07:38:18;;;;;;;4.03;3.50;;;;;;;;;;5107969;28;21004;-72
2021/08/11 07:40:46;;;;;;;3.80;3.40;;;;;;;;;;5112926;28;20432;-72
2021/08/11 07:43:13;;;;;;;6.40;3.20;;;;;;;;;;5097674;28;20528;-72
2021/08/11 07:45:40;;;;;;;4.17;3.77;;;;;;;;;;5108872;28;20437;-72
2021/08/11 07:48:08;;;;;;;4.10;3.70;;;;;;;;;;5102838;28;20524;-72
2021/08/11 07:50:38;;;;;;;4.73;3.87;;;;;;;;;;5101327;28;20528;-71
2021/08/11 07:53:05;;;;;;;4.40;3.63;;;;;;;;;;5110320;28;20476;-73
2021/08/11 07:55:32;;;;;;;4.20;3.33;;;;;;;;;;5097969;28;20436;-75
2021/08/11 07:58:00;;;;;;;3.60;3.30;;;;;;;;;;5106448;28;20453;-75
2021/08/11 08:00:27;;;;;;;4.80;4.10;;;;;;;;;;5105234;28;20451;-75
2021/08/11 08:02:55;;;;;;;7.57;3.40;;;;;;;;;;5099978;28;20527;-74
2021/08/11 08:05:22;;;;;;;5.70;3.70;;;;;;;;;;5110364;28;20446;-75
2021/08/11 08:07:51;;;;;;;3.20;2.90;;;;;;;;;;5099439;28;20482;-74
2021/08/11 08:10:18;;;;;;;4.80;3.90;;;;;;;;;;5104425;28;20878;-74
2021/08/11 08:12:45;;;;;;;4.50;3.37;;;;;;;;;;5099491;28;20479;-74
2021/08/11 08:15:13;;;;;;;3.37;2.90;;;;;;;;;;5110477;28;20523;-75
2021/08/11 08:17:41;;;;;;;4.40;3.40;;;;;;;;;;5097704;28;20466;-74
2021/08/11 08:20:08;;;;;;;5.40;4.10;;;;;;;;;;5113905;28;20454;-75
2021/08/11 08:22:36;;;;;;;5.80;3.50;;;;;;;;;;5113154;28;20993;-73
2021/08/11 08:25:05;;;;;;;7.10;3.47;;;;;;;;;;5113985;28;20444;-75
2021/08/11 08:27:32;;;;;;;3.90;3.10;;;;;;;;;;5113918;28;20487;-75
2021/08/11 08:29:59;;;;;;;5.13;3.53;;;;;;;;;;5113286;28;20436;-75
2021/08/11 08:32:29;;;;;;;6.50;3.13;;;;;;;;;;5113821;28;20442;-75
2021/08/11 08:34:56;;;;;;;4.20;3.30;;;;;;;;;;5112955;28;20447;-75
2021/08/11 08:37:27;;;;;;;4.20;3.80;;;;;;;;;;5113343;28;20448;-75
2021/08/11 08:39:54;;;;;;;5.50;3.20;;;;;;;;;;5113151;28;20513;-74
2021/08/11 08:42:23;;;;;;;5.60;3.20;;;;;;;;;;5113524;28;20530;-75
2021/08/11 08:44:50;;;;;;;4.30;3.50;;;;;;;;;;5112676;28;20442;-75
2021/08/11 08:47:18;;;;;;;6.37;3.70;;;;;;;;;;5113480;28;20479;-75
2021/08/11 08:49:46;;;;;;;3.50;3.20;;;;;;;;;;5112916;28;20450;-75
2021/08/11 08:52:14;;;;;;;4.83;4.10;;;;;;;;;;5113378;28;20440;-75
2021/08/11 08:54:42;;;;;;;5.80;3.60;;;;;;;;;;5112786;28;20444;-76
2021/08/11 08:57:09;;;;;;;4.83;3.43;;;;;;;;;;5113286;28;20488;-76
2021/08/11 08:59:42;;;;;;;4.50;3.33;;;;;;;;;;5112976;28;20527;-75
2021/08/11 09:02:10;;;;;;;3.90;3.60;;;;;;;;;;5113746;28;20424;-75
2021/08/11 09:04:37;;;;;;;3.60;3.30;;;;;;;;;;5113126;28;20539;-76
2021/08/11 09:07:06;;;;;;;4.30;3.90;;;;;;;;;;5112860;28;20481;-76
2021/08/11 09:09:37;;;;;;;4.40;3.80;;;;;;;;;;5113054;28;20531;-76
2021/08/11 09:12:11;;;;;;;6.23;3.97;;;;;;;;;;5113152;28;20447;-75
2021/08/11 09:14:42;;;;;;;6.00;3.83;;;;;;;;;;5112790;28;20431;-72
2021/08/11 09:17:09;;;;;;;3.57;3.27;;;;;;;;;;5112694;28;20911;-74
2021/08/11 09:19:39;;;;;;;6.83;3.70;;;;;;;;;;5112685;28;20450;-75
2021/08/11 09:22:07;;;;;;;4.53;3.40;;;;;;;;;;5112950;28;20511;-74
2021/08/11 09:24:36;;;;;;;4.17;3.60;;;;;;;;;;5112678;28;20444;-74
2021/08/11 09:27:19;;;;;;;4.60;3.03;;;;;;;;;;5112197;28;20450;-74
2021/08/11 09:30:01;;;;;;;5.80;3.57;;;;;;;;;;5112005;28;20861;-74
2021/08/11 09:32:30;;;;;;;4.27;3.30;;;;;;;;;;5109767;28;20967;-74
2021/08/11 09:34:57;;;;;;;3.70;3.40;;;;;;;;;;5112067;28;20522;-74
2021/08/11 09:37:37;;;;;;;3.47;3.17;;;;;;;;;;5112567;28;20447;-74
2021/08/11 09:40:10;;;;;;;3.80;3.50;;;;;;;;;;5111714;28;20899;-75
2021/08/11 09:42:38;;;;;;;4.27;3.87;;;;;;;;;;5112336;28;20431;-74
2021/08/11 09:45:07;;;;;;;4.13;3.27;;;;;;;;;;5112067;28;20432;-74
2021/08/11 09:47:36;;;;;;;3.23;2.80;;;;;;;;;;5112572;28;20562;-76
2021/08/11 09:50:05;;;;;;;3.20;2.73;;;;;;;;;;5112034;28;20479;-75
2021/08/11 09:52:46;;;;;;;3.57;2.93;;;;;;;;;;5112168;28;20508;-75
2021/08/11 09:55:14;;;;;;;4.40;3.10;;;;;;;;;;5112332;28;20424;-75
2021/08/11 09:57:41;;;;;;;4.67;3.53;;;;;;;;;;5112110;28;20551;-72
2021/08/11 10:00:12;;;;;;;4.10;3.30;;;;;;;;;;5111707;28;20447;-75
2021/08/11 10:02:42;;;;;;;4.20;3.43;;;;;;;;;;5112075;28;20432;-75
2021/08/11 10:05:10;;;;;;;5.53;3.33;;;;;;;;;;5111794;28;20951;-75
2021/08/11 10:07:38;;;;;;;3.80;3.10;;;;;;;;;;5111615;28;20435;-75
2021/08/11 10:10:07;;;;;;;4.33;3.87;;;;;;;;;;5111012;28;20439;-75
2021/08/11 10:12:34;;;;;;;4.07;3.67;;;;;;;;;;5111891;28;20489;-74
2021/08/11 10:15:03;;;;;;;6.00;3.63;;;;;;;;;;5111022;28;20853;-73
2021/08/11 10:17:31;;;;;;;3.47;2.70;;;;;;;;;;5111849;28;20445;-75
2021/08/11 10:19:59;;;;;;;3.97;3.63;;;;;;;;;;5110770;28;20447;-75
2021/08/11 10:22:28;;;;;;;3.53;3.10;;;;;;;;;;5111964;28;20518;-74
2021/08/11 10:24:56;;;;;;;3.53;3.27;;;;;;;;;;5111386;28;20427;-74
2021/08/11 10:27:23;;;;;;;4.10;3.57;;;;;;;;;;5111783;28;20943;-75
2021/08/11 10:29:50;;;;;;;4.30;2.97;;;;;;;;;;5110728;28;20518;-75
2021/08/11 10:32:17;;;;;;;4.13;3.50;;;;;;;;;;5111508;28;20435;-75
2021/08/11 10:34:45;;;;;;;7.73;3.77;;;;;;;;;;5111147;28;20495;-74
2021/08/11 10:37:14;;;;;;;4.20;3.53;;;;;;;;;;5111804;28;20514;-75
2021/08/11 10:39:42;;;;;;;4.90;3.60;;;;;;;;;;5111962;28;20447;-75
2021/08/11 10:42:10;;;;;;;4.23;3.50;;;;;;;;;;5111797;28;20488;-75
2021/08/11 10:44:38;;;;;;;3.60;3.30;;;;;;;;;;5111821;28;20518;-74
2021/08/11 10:47:05;;;;;;;3.70;2.83;;;;;;;;;;5111181;28;20538;-74
2021/08/11 10:49:32;;;;;;;5.57;3.70;;;;;;;;;;5111491;28;20589;-74
2021/08/11 10:52:15;;;;;;;3.40;3.20;;;;;;;;;;5111081;28;20434;-75
2021/08/11 10:54:51;;;;;;;3.93;3.50;;;;;;;;;;5111828;28;20424;-74
2021/08/11 10:57:33;;;;;;;3.80;3.50;;;;;;;;;;5111501;28;20425;-74
2021/08/11 11:00:00;;;;;;;4.37;3.07;;;;;;;;;;5110620;28;21007;-74
2021/08/11 11:02:51;;;;;;;4.70;4.30;;;;;;;;;;5111198;28;20446;-75
2021/08/11 11:05:33;;;;;;;4.80;3.83;;;;;;;;;;5111675;28;20424;-75
2021/08/11 11:08:24;;;;;;;3.93;3.30;;;;;;;;;;5094196;28;20918;-75
2021/08/11 11:10:53;;;;;;;3.67;3.27;;;;;;;;;;5090389;28;20487;-75
2021/08/11 11:13:40;;;;;;;3.50;3.20;;;;;;;;;;5111278;28;20981;-75
2021/08/11 11:16:09;;;;;;;9.43;4.03;;;;;;;;;;5110879;28;20518;-75
2021/08/11 11:18:38;;;;;;;4.00;3.37;;;;;;;;;;5111101;28;20928;-75
2021/08/11 11:21:24;;;;;;;4.20;3.60;;;;;;;;;;5111145;28;20481;-74
2021/08/11 11:23:51;;;;;;;4.47;3.20;;;;;;;;;;5114334;28;21018;-74
2021/08/11 11:26:31;;;;;;;5.20;3.33;;;;;;;;;;5115465;28;20447;-75
2021/08/11 11:29:00;;;;;;;4.20;3.40;;;;;;;;;;5114430;28;20558;-75
2021/08/11 11:31:31;;;;;;;4.17;3.77;;;;;;;;;;5114993;28;20475;-74
2021/08/11 11:34:13;;;;;;;5.00;3.73;;;;;;;;;;5114323;28;20526;-74
2021/08/11 11:36:40;;;;;;;5.00;4.40;;;;;;;;;;5114618;28;20530;-74
2021/08/11 11:39:11;;;;;;;6.13;4.60;;;;;;;;;;5114242;28;20538;-74
2021/08/11 11:42:00;;;;;;;6.27;3.40;;;;;;;;;;5114442;28;20442;-74
2021/08/11 11:44:47;;;;;;;4.80;3.30;;;;;;;;;;5114604;28;20443;-74
2021/08/11 11:47:15;;;;;;;4.17;3.50;;;;;;;;;;5114450;28;20530;-75
2021/08/11 11:49:42;;;;;;;4.63;4.17;;;;;;;;;;5114443;28;20493;-74
2021/08/11 11:52:14;;;;;;;3.73;3.40;;;;;;;;;;5114096;28;20789;-74
2021/08/11 11:54:44;;;;;;;6.20;3.80;;;;;;;;;;5114636;28;20435;-74
2021/08/11 11:57:13;;;;;;;4.10;3.73;;;;;;;;;;5114006;28;20441;-74
2021/08/11 11:59:44;;;;;;;4.37;3.97;;;;;;;;;;5114243;28;21044;-74
2021/08/11 12:02:18;;;;;;;5.53;3.20;;;;;;;;;;5113897;28;20487;-74
2021/08/11 12:04:56;;;;;;;4.07;3.67;;;;;;;;;;5113650;28;20435;-74
2021/08/11 12:07:29;;;;;;;5.40;4.03;;;;;;;;;;5113914;28;20441;-74
2021/08/11 12:09:56;;;;;;;3.90;3.50;;;;;;;;;;5112156;28;20467;-73
2021/08/11 12:12:25;;;;;;;5.47;4.27;;;;;;;;;;5109073;28;20437;-72
2021/08/11 12:14:52;;;;;;;3.90;3.50;;;;;;;;;;5100702;28;20443;-73
2021/08/11 12:17:29;;;;;;;5.10;3.87;;;;;;;;;;5104877;28;20527;-76
2021/08/11 12:19:57;;;;;;;4.70;4.27;;;;;;;;;;5101952;28;20762;-74
2021/08/11 12:22:31;;;;;;;4.40;3.50;;;;;;;;;;5110143;28;20486;-75
2021/08/11 12:24:58;;;;;;;3.97;3.53;;;;;;;;;;5100228;28;20510;-74
2021/08/11 12:27:26;;;;;;;3.80;3.50;;;;;;;;;;5103326;28;20531;-75
2021/08/11 12:30:08;;;;;;;5.30;3.20;;;;;;;;;;5114431;28;20553;-75
2021/08/11 12:32:36;;;;;;;4.30;3.63;;;;;;;;;;5099747;28;20866;-75
2021/08/11 12:35:03;;;;;;;5.83;4.53;;;;;;;;;;5103550;28;20467;-75
2021/08/11 12:37:30;;;;;;;7.40;4.00;;;;;;;;;;5104874;28;20439;-74
2021/08/11 12:39:57;;;;;;;3.83;3.40;;;;;;;;;;5098181;28;20793;-73
2021/08/11 12:42:24;;;;;;;5.00;3.70;;;;;;;;;;5110088;28;20439;-74
2021/08/11 12:44:55;;;;;;;5.30;3.50;;;;;;;;;;5098995;28;20444;-73
2021/08/11 12:47:26;;;;;;;4.57;3.60;;;;;;;;;;5107323;27;20428;-73
2021/08/11 12:49:53;;;;;;;5.50;3.50;;;;;;;;;;5096900;28;20487;-73
2021/08/11 12:52:21;;;;;;;5.70;3.10;;;;;;;;;;5109571;28;20530;-73
2021/08/11 12:54:52;;;;;;;4.53;4.10;;;;;;;;;;5098499;28;20475;-73
2021/08/11 12:57:19;;;;;;;4.73;3.33;;;;;;;;;;5103624;28;20847;-73
2021/08/11 12:59:47;;;;;;;3.47;3.17;;;;;;;;;;5106477;28;20471;-73
2021/08/11 13:02:23;;;;;;;5.30;4.30;;;;;;;;;;5095644;28;20476;-72
2021/08/11 13:04:51;;;;;;;4.43;4.03;;;;;;;;;;5106991;28;20510;-72
2021/08/11 13:07:18;;;;;;;5.43;4.00;;;;;;;;;;5101830;28;20441;-72
2021/08/11 13:09:46;;;;;;;4.43;4.03;;;;;;;;;;5110074;28;20470;-72
2021/08/11 13:12:13;;;;;;;5.50;3.60;;;;;;;;;;5095299;28;20519;-72
2021/08/11 13:15:01;;;;;;;4.30;3.60;;;;;;;;;;5108293;28;20464;-72
2021/08/11 13:17:30;;;;;;;5.90;5.33;;;;;;;;;;5098846;28;20451;-73
2021/08/11 13:20:10;;;;;;;3.43;3.13;;;;;;;;;;5107933;28;20453;-71
2021/08/11 13:22:37;;;;;;;3.73;3.43;;;;;;;;;;5105530;28;20424;-72
2021/08/11 13:25:05;;;;;;;4.10;3.70;;;;;;;;;;5103732;28;20514;-73
2021/08/11 13:27:33;;;;;;;3.67;3.17;;;;;;;;;;5104406;28;20439;-73
2021/08/11 13:30:00;;;;;;;3.53;2.83;;;;;;;;;;5106570;28;20498;-70
2021/08/11 13:32:27;;;;;;;4.13;3.23;;;;;;;;;;5102858;28;20919;-73
2021/08/11 13:34:56;;;;;;;4.57;3.37;;;;;;;;;;5097870;28;20459;-73
2021/08/11 13:37:23;;;;;;;3.90;3.20;;;;;;;;;;5102718;28;20860;-73
2021/08/11 13:39:50;;;;;;;5.00;4.00;;;;;;;;;;5098481;28;20462;-73
2021/08/11 13:42:17;;;;;;;3.90;3.50;;;;;;;;;;5108177;28;20435;-73
2021/08/11 13:44:45;;;;;;;3.60;3.23;;;;;;;;;;5096331;28;20454;-72
2021/08/11 13:47:12;;;;;;;3.70;3.40;;;;;;;;;;5102705;28;20941;-73
2021/08/11 13:49:39;;;;;;;4.53;3.80;;;;;;;;;;5104462;28;21074;-73
2021/08/11 13:52:07;;;;;;;4.13;3.50;;;;;;;;;;5103280;28;20450;-72
2021/08/11 13:54:35;;;;;;;6.30;3.47;;;;;;;;;;5095364;28;20952;-73
2021/08/11 13:57:02;;;;;;;4.23;3.17;;;;;;;;;;5102782;28;20442;-74
2021/08/11 13:59:29;;;;;;;3.73;3.43;;;;;;;;;;5100499;28;20535;-73
2021/08/11 14:01:56;;;;;;;5.00;3.77;;;;;;;;;;5105861;28;20285;-73
2021/08/11 14:04:23;;;;;;;5.97;3.43;;;;;;;;;;5093432;28;20205;-69
2021/08/11 14:06:51;;;;;;;3.60;3.30;;;;;;;;;;5101383;28;20243;-73
2021/08/11 14:09:19;;;;;;;4.70;4.30;;;;;;;;;;5104458;28;20558;-74
2021/08/11 14:11:46;;;;;;;4.30;3.90;;;;;;;;;;5093890;28;20475;-74
2021/08/11 14:14:13;;;;;;;6.77;4.03;;;;;;;;;;5108203;28;20482;-73
2021/08/11 14:16:41;;;;;;;4.50;3.47;;;;;;;;;;5109449;28;20205;-73
2021/08/11 14:19:08;;;;;;;3.73;3.37;;;;;;;;;;5107771;28;20459;-74
2021/08/11 14:21:35;;;;;;;4.20;3.90;;;;;;;;;;5108611;28;20680;-73
2021/08/11 14:24:02;;;;;;;3.90;3.60;;;;;;;;;;5108134;28;20189;-73
2021/08/11 14:26:31;;;;;;;5.97;3.97;;;;;;;;;;5106072;28;20276;-73
2021/08/11 14:28:58;;;;;;;4.10;3.53;;;;;;;;;;5108261;28;20197;-73
2021/08/11 14:31:25;;;;;;;3.57;3.27;;;;;;;;;;5107912;28;20689;-73
2021/08/11 14:33:52;;;;;;;4.07;3.30;;;;;;;;;;5108614;28;20268;-73
2021/08/11 14:36:20;;;;;;;3.70;3.40;;;;;;;;;;5108212;28;20696;-73
2021/08/11 14:38:47;;;;;;;4.32;3.85;;;;;;;;;;5108449;28;20277;-74
2021/08/11 14:41:15;;;;;;;4.15;3.80;;;;;;;;;;5107975;28;20236;-73
2021/08/11 14:43:43;;;;;;;5.40;3.88;;;;;;;;;;5108864;28;20676;-73
2021/08/11 14:46:10;;;;;;;7.10;3.75;;;;;;;;;;5107900;28;20204;-73
2021/08/11 14:48:38;;;;;;;3.83;3.53;;;;;;;;;;5108805;28;20197;-73
2021/08/11 14:51:05;;;;;;;3.88;3.53;;;;;;;;;;5106966;28;20267;-73
2021/08/11 14:53:32;;;;;;;4.15;3.75;;;;;;;;;;5108956;28;20197;-73